createdAt,value
2023-03-26T00:01:05.689Z,99691.08
2023-03-26T00:03:36.032Z,99688.45
2023-03-26T00:06:12.681Z,99693.11
2023-03-26T00:08:41.790Z,99693.08
2023-03-26T00:11:12.015Z,99697.38
2023-03-26T00:13:38.981Z,99703.18
2023-03-26T00:16:06.721Z,99707.15
2023-03-26T00:18:35.089Z,99697.88
2023-03-26T00:21:05.025Z,99707.37
2023-03-26T00:23:35.269Z,99705.35
2023-03-26T00:26:03.461Z,99710.48
2023-03-26T00:28:30.904Z,99707.48
2023-03-26T00:31:02.428Z,99712.04
2023-03-26T00:33:29.676Z,99711.09
2023-03-26T00:35:58.725Z,99708.81
2023-03-26T00:38:26.962Z,99710.11
2023-03-26T00:40:54.086Z,99711.91
2023-03-26T00:43:22.883Z,99714.30
2023-03-26T00:45:54.835Z,99721.48
2023-03-26T00:48:31.529Z,99720.48
2023-03-26T00:51:10.379Z,99722.30
2023-03-26T00:53:39.009Z,99720.37
2023-03-26T00:56:06.672Z,99726.08
2023-03-26T00:58:34.052Z,99731.52
2023-03-26T01:01:04.350Z,99740.21
2023-03-26T01:03:34.015Z,99734.73
2023-03-26T01:06:08.213Z,99738.70
2023-03-26T01:08:40.680Z,99742.19
2023-03-26T01:11:18.689Z,99744.15
2023-03-26T01:13:49.651Z,99744.42
2023-03-26T01:16:26.557Z,99742.62
2023-03-26T01:18:54.665Z,99751.23
2023-03-26T01:21:28.717Z,99744.70
2023-03-26T01:24:15.637Z,99750.90
2023-03-26T01:26:57.658Z,99754.09
2023-03-26T01:29:52.960Z,99752.48
2023-03-26T01:32:48.697Z,99755.13
2023-03-26T01:35:27.758Z,99748.84
2023-03-26T01:37:58.602Z,99751.20
2023-03-26T01:40:42.796Z,99740.08
2023-03-26T01:43:33.568Z,99740.58
2023-03-26T01:46:03.755Z,99741.77
2023-03-26T01:48:36.186Z,99746.54
2023-03-26T01:51:03.927Z,99743.80
2023-03-26T01:53:32.800Z,99740.35
2023-03-26T01:56:29.214Z,99740.48
2023-03-26T01:59:07.425Z,99741.22
2023-03-26T02:02:00.126Z,99746.14
2023-03-26T02:04:37.674Z,99741.98
2023-03-26T02:07:34.641Z,99734.16
2023-03-26T02:10:10.578Z,99733.65
2023-03-26T02:12:37.771Z,99731.84
2023-03-26T02:15:05.846Z,99734.10
2023-03-26T02:17:33.269Z,99731.41
2023-03-26T02:20:05.746Z,99733.41
2023-03-26T02:22:32.406Z,99732.86
2023-03-26T02:24:58.857Z,99730.40
2023-03-26T02:27:25.622Z,99729.45
2023-03-26T02:29:52.233Z,99724.73
2023-03-26T02:32:20.194Z,99730.64
2023-03-26T02:34:47.283Z,99730.58
2023-03-26T02:37:13.932Z,99736.79
2023-03-26T02:39:40.436Z,99731.75
2023-03-26T02:42:06.870Z,99736.43
2023-03-26T02:44:33.457Z,99733.27
2023-03-26T02:47:02.688Z,99734.95
2023-03-26T02:49:29.140Z,99729.67
2023-03-26T02:51:56.321Z,99745.36
2023-03-26T02:54:23.622Z,99738.87
2023-03-26T02:56:50.204Z,99734.41
2023-03-26T02:59:16.945Z,99734.73
2023-03-26T03:01:43.632Z,99739.28
2023-03-26T03:04:11.968Z,99740.02
2023-03-26T03:06:40.519Z,99732.67
2023-03-26T03:09:11.266Z,99731.10
2023-03-26T03:11:41.311Z,99736.77
2023-03-26T03:14:07.928Z,99730.23
2023-03-26T03:16:34.396Z,99727.61
2023-03-26T03:19:01.951Z,99730.04
2023-03-26T03:21:29.383Z,99715.95
2023-03-26T03:24:00.150Z,99712.89
2023-03-26T03:26:27.808Z,99715.92
2023-03-26T03:28:56.584Z,99709.15
2023-03-26T03:31:24.965Z,99712.98
2023-03-26T03:33:52.165Z,99707.66
2023-03-26T03:36:23.276Z,99704.77
2023-03-26T03:38:51.302Z,99708.41
2023-03-26T03:41:18.778Z,99712.98
2023-03-26T03:43:45.814Z,99712.65
2023-03-26T03:46:12.465Z,99710.71
2023-03-26T03:48:39.206Z,99711.52
2023-03-26T03:51:06.331Z,99714.38
2023-03-26T03:53:36.906Z,99715.79
2023-03-26T03:56:04.601Z,99712.62
2023-03-26T03:58:31.221Z,99712.89
2023-03-26T04:01:00.927Z,99710.98
2023-03-26T04:03:33.879Z,99715.41
2023-03-26T04:06:01.461Z,99715.58
2023-03-26T04:08:28.060Z,99716.54
2023-03-26T04:10:54.782Z,99720.84
2023-03-26T04:13:21.656Z,99720.11
2023-03-26T04:15:48.389Z,99718.95
2023-03-26T04:18:15.122Z,99718.11
2023-03-26T04:20:46.768Z,99717.63
2023-03-26T04:23:18.633Z,99722.95
2023-03-26T04:25:49.085Z,99719.83
2023-03-26T04:28:42.386Z,99719.18
2023-03-26T04:31:15.757Z,99721.42
2023-03-26T04:33:48.793Z,99719.23
2023-03-26T04:36:16.863Z,99720.83
2023-03-26T04:38:45.940Z,99718.39
2023-03-26T04:41:14.098Z,99716.41
2023-03-26T04:43:42.552Z,99710.23
2023-03-26T04:46:10.705Z,99711.43
2023-03-26T04:48:38.748Z,99709.09
2023-03-26T04:51:10.225Z,99710.05
2023-03-26T04:53:37.147Z,99707.17
2023-03-26T04:56:23.617Z,99705.67
2023-03-26T04:58:51.818Z,99704.97
2023-03-26T05:01:18.616Z,99707.73
2023-03-26T05:03:46.050Z,99706.22
2023-03-26T05:06:13.743Z,99703.86
2023-03-26T05:08:42.033Z,99697.55
2023-03-26T05:11:11.667Z,99695.20
2023-03-26T05:13:39.552Z,99700.40
2023-03-26T05:16:06.650Z,99694.34
2023-03-26T05:18:33.467Z,99697.59
2023-03-26T05:21:00.207Z,99698.17
2023-03-26T05:23:26.980Z,99695.15
2023-03-26T05:25:53.741Z,99697.59
2023-03-26T05:28:24.338Z,99697.86
2023-03-26T05:30:54.449Z,99696.93
2023-03-26T05:33:22.709Z,99698.35
2023-03-26T05:36:03.234Z,99696.65
2023-03-26T05:38:31.035Z,99691.46
2023-03-26T05:40:59.650Z,99691.73
2023-03-26T05:43:26.930Z,99694.28
2023-03-26T05:45:54.117Z,99696.52
2023-03-26T05:48:21.713Z,99695.03
2023-03-26T05:50:50.111Z,99696.41
2023-03-26T05:53:18.264Z,99695.86
2023-03-26T05:55:46.627Z,99698.17
2023-03-26T05:58:13.969Z,99697.16
2023-03-26T06:00:40.602Z,99693.62
2023-03-26T06:03:12.609Z,99693.84
2023-03-26T06:05:40.460Z,99691.79
2023-03-26T06:08:07.872Z,99691.17
2023-03-26T06:10:37.718Z,99689.92
2023-03-26T06:13:04.401Z,99688.11
2023-03-26T06:15:31.275Z,99684.63
2023-03-26T06:17:57.882Z,99687.02
2023-03-26T06:20:24.624Z,99679.50
2023-03-26T06:22:52.036Z,99682.84
2023-03-26T06:25:19.151Z,99676.07
2023-03-26T06:27:45.957Z,99678.41
2023-03-26T06:30:12.905Z,99679.69
2023-03-26T06:32:39.592Z,99675.44
2023-03-26T06:35:06.781Z,99675.91
2023-03-26T06:37:33.900Z,99673.54
2023-03-26T06:40:00.554Z,99673.02
2023-03-26T06:43:06.678Z,99672.61
2023-03-26T06:45:14.587Z,99670.47
2023-03-26T06:47:41.524Z,99668.02
2023-03-26T06:50:08.766Z,99669.39
2023-03-26T06:52:35.511Z,99663.34
2023-03-26T06:55:02.145Z,99664.55
2023-03-26T06:57:28.649Z,99663.59
2023-03-26T06:59:55.555Z,99668.80
2023-03-26T07:02:22.247Z,99666.70
2023-03-26T07:04:48.968Z,99662.17
2023-03-26T07:07:15.769Z,99658.71
2023-03-26T07:09:42.340Z,99664.44
2023-03-26T07:12:10.058Z,99657.58
2023-03-26T07:14:38.750Z,99658.09
2023-03-26T07:17:05.730Z,99656.61
2023-03-26T07:19:33.020Z,99656.14
2023-03-26T07:22:00.193Z,99655.99
2023-03-26T07:24:27.245Z,99650.66
2023-03-26T07:27:08.143Z,99647.08
2023-03-26T07:29:52.460Z,99642.61
2023-03-26T07:32:34.147Z,99635.90
2023-03-26T07:35:32.054Z,99633.51
2023-03-26T07:38:31.394Z,99627.98
2023-03-26T07:41:20.983Z,99630.52
2023-03-26T07:44:12.247Z,99634.36
2023-03-26T07:46:39.267Z,99632.88
2023-03-26T07:49:06.307Z,99637.86
2023-03-26T07:51:33.816Z,99639.20
2023-03-26T07:54:00.908Z,99636.68
2023-03-26T07:56:36.608Z,99631.38
2023-03-26T07:59:43.854Z,99632.17
2023-03-26T08:02:32.274Z,99625.20
2023-03-26T08:05:19.757Z,99624.52
2023-03-26T08:07:53.078Z,99618.88
2023-03-26T08:10:42.354Z,99619.88
2023-03-26T08:13:20.038Z,99621.56
2023-03-26T08:16:05.547Z,99618.42
2023-03-26T08:18:46.623Z,99616.55
2023-03-26T08:21:22.934Z,99615.30
2023-03-26T08:24:20.224Z,99618.23
2023-03-26T08:26:59.558Z,99618.08
2023-03-26T08:29:51.697Z,99616.11
2023-03-26T08:32:19.995Z,99616.14
2023-03-26T08:34:46.910Z,99614.46
2023-03-26T08:37:13.411Z,99620.55
2023-03-26T08:39:42.237Z,99620.01
2023-03-26T08:42:40.147Z,99619.69
2023-03-26T08:45:33.726Z,99621.82
2023-03-26T08:48:17.451Z,99618.92
2023-03-26T08:51:13.548Z,99617.39
2023-03-26T08:53:56.312Z,99617.48
2023-03-26T08:56:39.477Z,99620.16
2023-03-26T08:59:31.000Z,99618.37
2023-03-26T09:02:11.240Z,99615.80
2023-03-26T09:04:53.928Z,99613.27
2023-03-26T09:07:46.993Z,99608.99
2023-03-26T09:10:19.550Z,99605.91
2023-03-26T09:12:49.678Z,99602.65
2023-03-26T09:16:16.748Z,99602.16
2023-03-26T09:19:29.058Z,99597.80
2023-03-26T09:22:26.692Z,99596.52
2023-03-26T09:25:13.449Z,99598.18
2023-03-26T09:27:50.945Z,99597.88
2023-03-26T09:30:28.212Z,99597.44
2023-03-26T09:33:31.482Z,99599.79
2023-03-26T09:36:46.283Z,99601.11
2023-03-26T09:39:46.972Z,99599.93
2023-03-26T09:42:42.395Z,99598.97
2023-03-26T09:45:18.096Z,99600.40
2023-03-26T09:48:05.986Z,99600.17
2023-03-26T09:50:42.417Z,99598.73
2023-03-26T09:53:30.720Z,99598.41
2023-03-26T09:56:11.821Z,99596.86
2023-03-26T09:58:38.293Z,99600.61
2023-03-26T10:01:14.559Z,99597.14
2023-03-26T10:04:17.664Z,99594.69
2023-03-26T10:06:54.287Z,99588.73
2023-03-26T10:09:37.558Z,99590.43
2023-03-26T10:12:36.852Z,99588.63
2023-03-26T10:15:32.556Z,99586.55
2023-03-26T10:18:29.662Z,99586.23
2023-03-26T10:21:12.261Z,99586.25
2023-03-26T10:23:45.286Z,99582.34
2023-03-26T10:26:30.799Z,99579.19
2023-03-26T10:29:16.372Z,99580.75
2023-03-26T10:31:44.748Z,99578.68
2023-03-26T10:34:44.892Z,99576.81
2023-03-26T10:37:20.653Z,99572.11
2023-03-26T10:40:20.250Z,99572.08
2023-03-26T10:43:17.131Z,99572.98
2023-03-26T10:45:46.785Z,99574.00
2023-03-26T10:48:25.637Z,99576.84
2023-03-26T10:51:04.259Z,99573.47
2023-03-26T10:53:47.749Z,99573.05
2023-03-26T10:56:35.489Z,99569.95
2023-03-26T10:59:07.232Z,99568.64
2023-03-26T11:01:55.933Z,99566.22
2023-03-26T11:04:40.778Z,99566.85
2023-03-26T11:07:30.939Z,99560.61
2023-03-26T11:10:08.320Z,99559.08
2023-03-26T11:12:34.816Z,99559.82
2023-03-26T11:15:22.764Z,99562.76
2023-03-26T11:18:07.836Z,99557.48
2023-03-26T11:20:55.441Z,99552.79
2023-03-26T11:24:04.895Z,99553.98
2023-03-26T11:26:55.827Z,99551.21
2023-03-26T11:29:57.381Z,99549.02
2023-03-26T11:32:31.842Z,99549.20
2023-03-26T11:35:06.084Z,99545.95
2023-03-26T11:37:42.258Z,99542.38
2023-03-26T11:40:20.208Z,99545.33
2023-03-26T11:42:49.868Z,99547.15
2023-03-26T11:45:21.020Z,99549.93
2023-03-26T11:48:04.080Z,99547.92
2023-03-26T11:50:35.721Z,99542.96
2023-03-26T11:53:12.811Z,99545.61
2023-03-26T11:55:44.353Z,99545.88
2023-03-26T11:58:39.332Z,99544.01
2023-03-26T12:01:17.360Z,99543.10
2023-03-26T12:04:03.607Z,99537.44
2023-03-26T12:06:30.263Z,99535.35
2023-03-26T12:08:57.391Z,99532.75
2023-03-26T12:11:33.219Z,99531.09
2023-03-26T12:14:04.019Z,99532.45
2023-03-26T12:16:30.616Z,99534.23
2023-03-26T12:19:19.521Z,99531.95
2023-03-26T12:21:51.833Z,99529.38
2023-03-26T12:24:35.991Z,99528.55
2023-03-26T12:27:24.890Z,99526.71
2023-03-26T12:29:52.564Z,99521.48
2023-03-26T12:32:19.179Z,99523.36
2023-03-26T12:34:46.096Z,99525.75
2023-03-26T12:37:35.731Z,99519.48
2023-03-26T12:40:26.010Z,99520.61
2023-03-26T12:44:56.639Z,99514.19
2023-03-26T12:45:43.676Z,99515.47
2023-03-26T12:48:13.249Z,99517.84
2023-03-26T12:50:45.633Z,99517.39
2023-03-26T12:53:46.376Z,99518.44
2023-03-26T12:56:40.597Z,99516.92
2023-03-26T12:59:21.951Z,99516.98
2023-03-26T13:02:29.441Z,99519.17
2023-03-26T13:05:05.735Z,99518.52
2023-03-26T13:07:53.716Z,99514.14
2023-03-26T13:10:26.664Z,99515.14
2023-03-26T13:13:31.058Z,99514.52
2023-03-26T13:16:03.834Z,99511.13
2023-03-26T13:18:36.505Z,99514.50
2023-03-26T13:21:22.989Z,99511.50
2023-03-26T13:24:05.970Z,99508.72
2023-03-26T13:27:02.044Z,99503.96
2023-03-26T13:29:46.869Z,99503.98
2023-03-26T13:32:34.526Z,99503.95
2023-03-26T13:35:16.471Z,99497.42
2023-03-26T13:38:01.829Z,99498.84
2023-03-26T13:40:53.233Z,99494.30
2023-03-26T13:43:46.563Z,99495.84
2023-03-26T13:46:43.064Z,99493.48
2023-03-26T13:49:13.149Z,99494.98
2023-03-26T13:52:03.034Z,99495.84
2023-03-26T13:54:44.802Z,99489.92
2023-03-26T13:57:21.606Z,99491.23
2023-03-26T13:59:50.352Z,99494.08
2023-03-26T14:02:42.690Z,99489.02
2023-03-26T14:05:48.854Z,99490.73
2023-03-26T14:08:25.805Z,99490.36
2023-03-26T14:10:56.362Z,99493.60
2023-03-26T14:13:36.091Z,99494.57
2023-03-26T14:16:24.267Z,99493.50
2023-03-26T14:19:24.768Z,99498.53
2023-03-26T14:22:01.934Z,99496.19
2023-03-26T14:24:48.604Z,99496.77
2023-03-26T14:27:38.317Z,99497.46
2023-03-26T14:30:42.412Z,99500.86
2023-03-26T14:33:38.663Z,99502.67
2023-03-26T14:36:27.172Z,99508.76
2023-03-26T14:39:26.413Z,99501.08
2023-03-26T14:42:08.687Z,99501.66
2023-03-26T14:44:50.644Z,99504.75
2023-03-26T14:47:19.038Z,99504.87
2023-03-26T14:50:22.732Z,99507.94
2023-03-26T14:52:51.962Z,99506.30
2023-03-26T14:55:56.793Z,99505.92
2023-03-26T14:58:51.134Z,99506.14
2023-03-26T15:01:23.653Z,99502.44
2023-03-26T15:04:47.167Z,99506.48
2023-03-26T15:07:41.934Z,99509.80
2023-03-26T15:10:18.650Z,99512.23
2023-03-26T15:13:03.678Z,99515.08
2023-03-26T15:15:53.951Z,99515.40
2023-03-26T15:18:24.948Z,99514.58
2023-03-26T15:21:10.616Z,99512.59
2023-03-26T15:24:25.466Z,99514.98
2023-03-26T15:27:22.603Z,99512.98
2023-03-26T15:30:12.384Z,99517.48
2023-03-26T15:33:07.658Z,99518.13
2023-03-26T15:35:38.051Z,99520.30
2023-03-26T15:38:38.614Z,99524.74
2023-03-26T15:41:18.035Z,99525.23
2023-03-26T15:47:01.812Z,99528.48
2023-03-26T15:49:55.177Z,99525.73
2023-03-26T15:52:31.302Z,99527.34
2023-03-26T15:55:31.400Z,99526.73
2023-03-26T15:58:25.591Z,99527.38
2023-03-26T16:01:03.991Z,99531.83
2023-03-26T16:03:48.068Z,99534.30
2023-03-26T16:06:36.741Z,99534.11
2023-03-26T16:09:17.053Z,99534.45
2023-03-26T16:12:04.371Z,99538.42
2023-03-26T16:14:46.879Z,99542.84
2023-03-26T16:17:17.813Z,99542.45
2023-03-26T16:19:44.268Z,99541.72
2023-03-26T16:22:42.536Z,99545.33
2023-03-26T16:25:33.613Z,99544.81
2023-03-26T16:28:22.879Z,99550.88
2023-03-26T16:31:37.792Z,99551.08
2023-03-26T16:34:07.136Z,99554.31
2023-03-26T16:36:35.531Z,99557.08
2023-03-26T16:39:11.582Z,99562.20
2023-03-26T16:41:50.146Z,99564.86
2023-03-26T16:44:38.638Z,99563.39
2023-03-26T16:47:21.997Z,99564.45
2023-03-26T16:50:08.644Z,99566.15
2023-03-26T16:52:54.918Z,99566.09
2023-03-26T16:55:46.955Z,99568.08
2023-03-26T16:58:13.578Z,99573.86
2023-03-26T17:01:06.408Z,99573.13
2023-03-26T17:03:45.040Z,99581.02
2023-03-26T17:06:33.802Z,99584.55
2023-03-26T17:09:03.904Z,99586.35
2023-03-26T17:11:56.571Z,99591.36
2023-03-26T17:14:49.006Z,99595.79
2023-03-26T17:17:38.026Z,99595.28
2023-03-26T17:20:32.788Z,99599.15
2023-03-26T17:23:28.463Z,99605.55
2023-03-26T17:26:07.174Z,99606.48
2023-03-26T17:29:00.319Z,99611.21
2023-03-26T17:31:58.548Z,99614.97
2023-03-26T17:34:50.466Z,99620.93
2023-03-26T17:37:16.979Z,99617.63
2023-03-26T17:39:43.526Z,99624.27
2023-03-26T17:42:16.148Z,99632.05
2023-03-26T17:44:53.084Z,99632.09
2023-03-26T17:47:26.770Z,99636.29
2023-03-26T17:50:00.544Z,99638.46
2023-03-26T17:52:48.080Z,99642.19
2023-03-26T17:55:27.803Z,99644.02
2023-03-26T17:57:57.844Z,99649.20
2023-03-26T18:00:29.207Z,99653.55
2023-03-26T18:03:01.369Z,99657.29
2023-03-26T18:05:30.857Z,99664.75
2023-03-26T18:08:02.041Z,99668.39
2023-03-26T18:11:26.838Z,99670.12
2023-03-26T18:14:08.785Z,99676.71
2023-03-26T18:16:46.069Z,99679.08
2023-03-26T18:19:22.849Z,99681.81
2023-03-26T18:21:52.485Z,99687.70
2023-03-26T18:24:41.256Z,99691.23
2023-03-26T18:27:14.779Z,99696.61
2023-03-26T18:29:56.372Z,99702.52
2023-03-26T18:32:33.383Z,99702.49
2023-03-26T18:35:13.596Z,99707.65
2023-03-26T18:37:44.085Z,99715.60
2023-03-26T18:40:20.996Z,99715.92
2023-03-26T18:42:57.815Z,99718.38
2023-03-26T18:45:37.448Z,99724.70
2023-03-26T18:48:22.958Z,99727.88
2023-03-26T18:51:06.712Z,99727.92
2023-03-26T18:53:41.157Z,99734.99
2023-03-26T18:56:38.919Z,99739.86
2023-03-26T18:59:28.383Z,99748.17
2023-03-26T19:01:57.837Z,99750.34
2023-03-26T19:04:27.197Z,99756.33
2023-03-26T19:06:56.182Z,99758.85
2023-03-26T19:09:31.514Z,99757.13
2023-03-26T19:12:16.216Z,99762.08
2023-03-26T19:15:13.664Z,99771.48
2023-03-26T19:17:44.794Z,99770.71
2023-03-26T19:20:40.120Z,99772.42
2023-03-26T19:23:08.845Z,99777.20
2023-03-26T19:25:47.896Z,99778.98
2023-03-26T19:28:19.800Z,99786.52
2023-03-26T19:30:46.614Z,99787.14
2023-03-26T19:33:20.400Z,99792.73
2023-03-26T19:36:02.144Z,99791.56
2023-03-26T19:38:37.700Z,99796.89
2023-03-26T19:41:04.598Z,99802.65
2023-03-26T19:43:31.161Z,99803.17
2023-03-26T19:46:01.233Z,99805.08
2023-03-26T19:48:46.589Z,99812.34
2023-03-26T19:51:26.147Z,99814.64
2023-03-26T19:53:55.979Z,99817.67
2023-03-26T19:56:22.928Z,99818.88
2023-03-26T19:58:52.603Z,99823.25
2023-03-26T20:01:21.022Z,99829.23
2023-03-26T20:03:50.507Z,99831.89
2023-03-26T20:06:22.189Z,99835.95
2023-03-26T20:08:55.428Z,99836.42
2023-03-26T20:11:36.672Z,99838.77
2023-03-26T20:14:12.643Z,99844.92
2023-03-26T20:16:40.065Z,99843.45
2023-03-26T20:19:08.769Z,99846.81
2023-03-26T20:21:35.433Z,99845.97
2023-03-26T20:24:02.085Z,99845.20
2023-03-26T20:26:28.640Z,99849.18
2023-03-26T20:28:55.106Z,99850.91
2023-03-26T20:31:25.006Z,99855.39
2023-03-26T20:33:53.443Z,99862.30
2023-03-26T20:36:33.215Z,99863.28
2023-03-26T20:39:05.543Z,99869.29
2023-03-26T20:41:32.732Z,99866.94
2023-03-26T20:43:59.209Z,99870.95
2023-03-26T20:46:30.979Z,99870.39
2023-03-26T20:48:59.650Z,99870.64
2023-03-26T20:51:28.790Z,99871.46
2023-03-26T20:53:56.084Z,99876.06
2023-03-26T20:56:23.421Z,99875.77
2023-03-26T20:59:03.725Z,99879.69
2023-03-26T21:01:37.752Z,99882.73
2023-03-26T21:04:04.427Z,99887.30
2023-03-26T21:06:31.226Z,99888.33
2023-03-26T21:08:58.306Z,99889.52
2023-03-26T21:11:49.996Z,99891.67
2023-03-26T21:14:24.460Z,99893.08
2023-03-26T21:16:51.887Z,99895.80
2023-03-26T21:19:19.031Z,99901.98
2023-03-26T21:21:57.655Z,99902.33
2023-03-26T21:24:33.184Z,99907.29
2023-03-26T21:27:37.901Z,99913.00
2023-03-26T21:30:10.500Z,99919.52
2023-03-26T21:32:37.256Z,99927.58
2023-03-26T21:35:04.624Z,99935.41
2023-03-26T21:37:31.509Z,99938.15
2023-03-26T21:39:59.864Z,99940.52
2023-03-26T21:42:29.238Z,99941.86
2023-03-26T21:44:56.043Z,99945.45
2023-03-26T21:47:23.075Z,99952.70
2023-03-26T21:49:50.675Z,99955.23
2023-03-26T21:52:17.583Z,99955.26
2023-03-26T21:54:44.456Z,99958.58
2023-03-26T21:57:26.183Z,99961.68
2023-03-26T22:00:11.427Z,99964.21
2023-03-26T22:03:10.351Z,99968.28
2023-03-26T22:05:50.795Z,99978.11
2023-03-26T22:08:29.976Z,99977.48
2023-03-26T22:10:57.090Z,99979.58
2023-03-26T22:13:24.506Z,99980.98
2023-03-26T22:15:51.030Z,99983.67
2023-03-26T22:18:21.450Z,99989.56
2023-03-26T22:20:49.003Z,99996.54
2023-03-26T22:23:16.846Z,100004.20
2023-03-26T22:25:46.260Z,100006.64
2023-03-26T22:28:12.711Z,100008.13
2023-03-26T22:30:39.618Z,100009.36
2023-03-26T22:33:10.885Z,100014.45
2023-03-26T22:35:44.545Z,100016.02
2023-03-26T22:38:11.782Z,100016.17
2023-03-26T22:40:38.929Z,100026.27
2023-03-26T22:43:05.519Z,100027.62
2023-03-26T22:45:32.561Z,100032.30
2023-03-26T22:48:03.812Z,100032.74
2023-03-26T22:50:31.947Z,100035.62
2023-03-26T22:52:58.547Z,100041.52
2023-03-26T22:55:29.017Z,100045.69
2023-03-26T22:57:56.888Z,100056.20
2023-03-26T23:00:23.655Z,100058.91
2023-03-26T23:02:50.178Z,100061.66
2023-03-26T23:05:17.640Z,100064.83
2023-03-26T23:07:46.157Z,100068.01
2023-03-26T23:10:13.790Z,100073.48
2023-03-26T23:12:41.855Z,100077.45
2023-03-26T23:15:09.743Z,100084.69
2023-03-26T23:17:38.679Z,100086.60
2023-03-26T23:20:13.561Z,100091.41
2023-03-26T23:22:40.828Z,100095.88
2023-03-26T23:25:07.776Z,100100.58
2023-03-26T23:27:35.735Z,100103.80
2023-03-26T23:30:04.197Z,100108.94
2023-03-26T23:32:31.446Z,100109.35
2023-03-26T23:34:57.978Z,100115.88
2023-03-26T23:37:24.632Z,100115.44
2023-03-26T23:39:51.994Z,100120.96
2023-03-26T23:42:29.167Z,100126.37
2023-03-26T23:44:57.323Z,100130.61
2023-03-26T23:47:24.508Z,100130.84
2023-03-26T23:49:51.193Z,100139.73
2023-03-26T23:52:18.435Z,100148.27
2023-03-26T23:54:45.738Z,100153.84
2023-03-26T23:57:12.877Z,100160.48
2023-03-26T23:59:41.513Z,100163.02
